Time;durP1;ratioP1;P1;durP2;ratioP2;P2;SDS_P1;SDS_P2;PMS_P1;PMS_P2;Temp;Humidity;BMP_temperature;BMP_pressure;BME280_temperature;BME280_humidity;BME280_pressure;Samples;Min_cycle;Max_cycle;Signal;HPM_P1;HPM_P2
2023/09/25 02:03:28;;;;;;;9.80;9.50;;;7.80;99.90;;;;;;6238280;23;20207;-82
2023/09/25 02:05:57;;;;;;;9.70;9.40;;;7.80;99.90;;;;;;6238829;23;20191;-82
2023/09/25 02:08:24;;;;;;;9.67;9.37;;;7.80;99.90;;;;;;6238380;23;20218;-83
2023/09/25 02:10:51;;;;;;;10.07;9.77;;;7.80;99.90;;;;;;6238659;22;20195;-82
2023/09/25 02:13:18;;;;;;;9.87;9.57;;;7.80;99.90;;;;;;6237694;23;20211;-82
2023/09/25 02:15:47;;;;;;;9.77;9.47;;;7.90;99.90;;;;;;6237913;23;20210;-82
2023/09/25 02:18:14;;;;;;;9.67;9.37;;;7.90;99.90;;;;;;6238373;23;20203;-82
2023/09/25 02:20:43;;;;;;;9.70;9.40;;;7.90;99.90;;;;;;6239038;23;20194;-81
2023/09/25 02:23:10;;;;;;;9.70;9.40;;;7.90;99.90;;;;;;6238039;22;20222;-82
2023/09/25 02:25:37;;;;;;;9.90;9.60;;;8.00;99.90;;;;;;6227975;23;20191;-80
2023/09/25 02:28:05;;;;;;;9.50;9.20;;;7.90;99.90;;;;;;6227277;23;20195;-80
2023/09/25 02:30:32;;;;;;;9.50;9.20;;;8.00;99.90;;;;;;6226940;23;20207;-80
2023/09/25 02:33:00;;;;;;;9.50;9.20;;;8.00;99.90;;;;;;6226794;22;20195;-80
2023/09/25 02:35:27;;;;;;;9.80;9.50;;;7.90;99.90;;;;;;6227215;23;20203;-82
2023/09/25 02:37:55;;;;;;;9.70;9.40;;;7.90;99.90;;;;;;6227153;23;20217;-80
2023/09/25 02:40:22;;;;;;;9.67;9.37;;;7.90;99.90;;;;;;6227474;23;20266;-80
2023/09/25 02:42:50;;;;;;;9.53;9.23;;;7.90;99.90;;;;;;6226861;22;20223;-80
2023/09/25 02:45:18;;;;;;;9.40;9.10;;;7.90;99.90;;;;;;6227175;23;20199;-80
2023/09/25 02:47:45;;;;;;;9.60;9.30;;;7.80;99.90;;;;;;6226920;23;20191;-80
2023/09/25 02:50:14;;;;;;;9.60;9.30;;;7.80;99.90;;;;;;6227236;23;20194;-80
2023/09/25 02:52:43;;;;;;;9.47;9.17;;;7.80;99.90;;;;;;6227107;22;20214;-80
2023/09/25 02:55:12;;;;;;;9.50;9.20;;;7.80;99.90;;;;;;6227804;23;20737;-80
2023/09/25 02:57:39;;;;;;;9.20;8.90;;;7.70;99.90;;;;;;6227792;23;20222;-80
2023/09/25 03:00:10;;;;;;;9.60;9.30;;;7.70;99.90;;;;;;6227306;23;20210;-80
2023/09/25 03:02:38;;;;;;;9.60;9.30;;;7.60;99.90;;;;;;6227344;22;20226;-80
2023/09/25 03:05:06;;;;;;;9.50;9.20;;;7.60;99.90;;;;;;6230450;23;20207;-80
2023/09/25 03:07:33;;;;;;;9.40;9.10;;;7.60;99.90;;;;;;6229322;23;20205;-80
2023/09/25 03:10:01;;;;;;;9.40;9.10;;;7.60;99.90;;;;;;6230424;23;20207;-80
2023/09/25 03:12:29;;;;;;;9.13;8.83;;;7.50;99.90;;;;;;6227202;22;20210;-80
2023/09/25 03:14:56;;;;;;;9.37;9.07;;;7.50;99.90;;;;;;6241012;22;20193;-80
2023/09/25 03:17:24;;;;;;;9.77;9.47;;;7.50;99.90;;;;;;6230232;23;20213;-80
2023/09/25 03:19:53;;;;;;;9.30;9.00;;;7.50;99.90;;;;;;6229641;23;20218;-80
2023/09/25 03:22:20;;;;;;;9.40;9.10;;;7.50;99.90;;;;;;6229772;22;20671;-80
2023/09/25 03:24:48;;;;;;;9.80;9.50;;;7.60;99.90;;;;;;6239028;23;20198;-80
2023/09/25 03:27:16;;;;;;;9.70;9.40;;;7.60;99.90;;;;;;6230840;23;20191;-80
2023/09/25 03:29:45;;;;;;;9.60;9.30;;;7.60;99.90;;;;;;6229244;23;20211;-80
2023/09/25 03:32:12;;;;;;;9.70;9.40;;;7.60;99.90;;;;;;6234259;22;20202;-79
2023/09/25 03:34:40;;;;;;;9.43;9.13;;;7.60;99.90;;;;;;6236791;23;20262;-80
2023/09/25 03:37:07;;;;;;;9.60;9.30;;;7.60;99.90;;;;;;6233533;23;20195;-80
2023/09/25 03:39:34;;;;;;;9.70;9.40;;;7.60;99.90;;;;;;6232017;23;20222;-80
2023/09/25 03:42:01;;;;;;;9.43;9.13;;;7.60;99.90;;;;;;6231398;22;20199;-80
2023/09/25 03:44:28;;;;;;;9.70;9.40;;;7.60;99.90;;;;;;6233156;23;20194;-80
2023/09/25 03:46:57;;;;;;;9.60;9.30;;;7.50;99.90;;;;;;6230114;23;20327;-80
2023/09/25 03:49:24;;;;;;;9.70;9.40;;;7.50;99.90;;;;;;6228276;23;20221;-80
2023/09/25 03:51:51;;;;;;;9.53;9.23;;;7.50;99.90;;;;;;6226856;22;20234;-80
2023/09/25 03:54:18;;;;;;;9.60;9.30;;;7.50;99.90;;;;;;6226952;23;20237;-80
2023/09/25 03:56:45;;;;;;;9.67;9.37;;;7.50;99.90;;;;;;6226689;23;20194;-80
2023/09/25 03:59:13;;;;;;;9.70;9.40;;;7.50;99.90;;;;;;6232047;23;20234;-80
2023/09/25 04:01:40;;;;;;;9.63;9.33;;;7.50;99.90;;;;;;6232284;22;20202;-80
2023/09/25 04:04:08;;;;;;;9.53;9.23;;;7.60;99.90;;;;;;6229581;23;20195;-80
2023/09/25 04:06:35;;;;;;;9.50;9.20;;;7.60;99.90;;;;;;6226783;23;20198;-80
2023/09/25 04:09:03;;;;;;;9.60;9.30;;;7.50;99.90;;;;;;6227014;23;20195;-80
2023/09/25 04:11:30;;;;;;;9.60;9.30;;;7.50;99.90;;;;;;6226267;22;20203;-80
2023/09/25 04:13:57;;;;;;;9.87;9.57;;;7.50;99.90;;;;;;6227023;23;20207;-80
2023/09/25 04:16:25;;;;;;;9.50;9.20;;;7.50;99.90;;;;;;6233144;23;20198;-80
2023/09/25 04:18:52;;;;;;;9.53;9.23;;;7.50;99.90;;;;;;6237173;23;20199;-80
2023/09/25 04:21:21;;;;;;;9.60;9.30;;;7.50;99.90;;;;;;6233273;22;20215;-80
2023/09/25 04:23:49;;;;;;;9.47;9.17;;;7.50;99.90;;;;;;6228924;23;20289;-80
2023/09/25 04:26:16;;;;;;;9.50;9.20;;;7.50;99.90;;;;;;6227827;23;20214;-80
2023/09/25 04:28:43;;;;;;;9.70;9.40;;;7.40;99.90;;;;;;6226182;23;20206;-80
2023/09/25 04:31:11;;;;;;;9.50;9.20;;;7.40;99.90;;;;;;6226429;22;20221;-80
2023/09/25 04:33:38;;;;;;;9.50;9.20;;;7.40;99.90;;;;;;6226016;23;21010;-80
2023/09/25 04:36:09;;;;;;;9.60;9.30;;;7.40;99.90;;;;;;6226675;23;20195;-80
2023/09/25 04:38:38;;;;;;;9.50;9.20;;;7.40;99.90;;;;;;6226327;23;20286;-80
2023/09/25 04:41:05;;;;;;;9.40;9.10;;;7.40;99.90;;;;;;6226469;22;20229;-80
2023/09/25 04:43:33;;;;;;;9.50;9.20;;;7.30;99.90;;;;;;6228600;23;20290;-80
2023/09/25 04:46:00;;;;;;;9.50;9.20;;;7.30;99.90;;;;;;6228799;23;20194;-80
2023/09/25 04:48:29;;;;;;;9.80;9.50;;;7.40;99.90;;;;;;6227840;23;20250;-80
2023/09/25 04:50:57;;;;;;;9.90;9.60;;;7.30;99.90;;;;;;6227785;22;20234;-80
2023/09/25 04:53:24;;;;;;;9.90;9.60;;;7.30;99.90;;;;;;6227548;23;20199;-80
2023/09/25 04:55:53;;;;;;;9.70;9.40;;;7.30;99.90;;;;;;6228878;23;20191;-80
2023/09/25 04:58:20;;;;;;;9.97;9.67;;;7.30;99.90;;;;;;6227988;23;20183;-80
2023/09/25 05:00:48;;;;;;;10.07;9.77;;;7.20;99.90;;;;;;6227392;23;20245;-80
2023/09/25 05:03:15;;;;;;;9.90;9.60;;;7.30;99.90;;;;;;6227326;22;20210;-80
2023/09/25 05:05:42;;;;;;;10.13;9.83;;;7.30;99.90;;;;;;6228020;23;20258;-81
2023/09/25 05:08:09;;;;;;;9.87;9.57;;;7.20;99.90;;;;;;6227637;23;20923;-81
2023/09/25 05:10:36;;;;;;;10.07;9.77;;;7.20;99.90;;;;;;6227585;23;20198;-80
2023/09/25 05:13:05;;;;;;;10.10;9.80;;;7.30;99.90;;;;;;6227237;22;21039;-81
2023/09/25 05:15:32;;;;;;;9.83;9.53;;;7.30;99.90;;;;;;6228009;23;20207;-81
2023/09/25 05:17:59;;;;;;;10.00;9.70;;;7.30;99.90;;;;;;6227589;23;20234;-81
2023/09/25 05:20:26;;;;;;;9.57;9.27;;;7.30;99.90;;;;;;6227839;23;20226;-81
2023/09/25 05:22:56;;;;;;;9.53;9.23;;;7.30;99.90;;;;;;6226812;22;20218;-81
2023/09/25 05:25:24;;;;;;;9.73;9.43;;;7.30;99.90;;;;;;6233678;23;20206;-81
2023/09/25 05:27:55;;;;;;;10.07;9.77;;;7.30;99.90;;;;;;6227291;23;20210;-80
2023/09/25 05:30:24;;;;;;;10.17;9.87;;;7.30;99.90;;;;;;6227794;23;20194;-79
2023/09/25 05:32:52;;;;;;;10.00;9.70;;;7.30;99.90;;;;;;6227136;22;20203;-80
2023/09/25 05:35:20;;;;;;;10.00;9.70;;;7.30;99.90;;;;;;6227355;23;20207;-80
2023/09/25 05:37:48;;;;;;;10.00;9.70;;;7.40;99.90;;;;;;6226299;23;20218;-80
2023/09/25 05:40:16;;;;;;;9.97;9.67;;;7.40;99.90;;;;;;6226591;23;20210;-80
2023/09/25 05:42:45;;;;;;;9.87;9.57;;;7.40;99.90;;;;;;6226824;22;20199;-80
2023/09/25 05:45:14;;;;;;;10.00;9.70;;;7.50;99.90;;;;;;6227718;23;20226;-79
2023/09/25 05:47:43;;;;;;;9.73;9.43;;;7.50;99.90;;;;;;6226898;23;20211;-79
2023/09/25 05:50:11;;;;;;;10.00;9.70;;;7.50;99.90;;;;;;6227107;23;20195;-80
2023/09/25 05:52:39;;;;;;;9.67;9.37;;;7.50;99.90;;;;;;6226131;22;20273;-82
2023/09/25 05:55:08;;;;;;;10.00;9.70;;;7.50;99.90;;;;;;6227225;23;20218;-81
2023/09/25 05:57:36;;;;;;;9.80;9.50;;;7.60;99.90;;;;;;6227969;23;20199;-81
2023/09/25 06:00:11;;;;;;;9.70;9.40;;;7.60;99.90;;;;;;6227938;23;20203;-81
2023/09/25 06:02:39;;;;;;;9.30;9.00;;;7.60;99.90;;;;;;6227383;22;20224;-80
2023/09/25 06:05:09;;;;;;;9.57;9.27;;;7.70;99.90;;;;;;6226930;23;20198;-81
2023/09/25 06:07:36;;;;;;;9.33;9.03;;;7.70;99.90;;;;;;6227231;23;20203;-81
2023/09/25 06:10:04;;;;;;;9.60;9.30;;;7.80;99.90;;;;;;6227096;23;20214;-80
2023/09/25 06:12:32;;;;;;;9.33;9.03;;;7.80;99.90;;;;;;6226687;22;20337;-80
2023/09/25 06:14:59;;;;;;;10.00;9.70;;;7.90;99.90;;;;;;6226859;23;20218;-80
2023/09/25 06:17:26;;;;;;;9.70;9.40;;;7.90;99.90;;;;;;6227199;23;20254;-79
2023/09/25 06:19:54;;;;;;;9.90;9.60;;;8.00;99.90;;;;;;6228397;23;20246;-80
2023/09/25 06:22:35;;;;;;;9.93;9.63;;;8.10;99.90;;;;;;6228388;22;20254;-80
2023/09/25 06:25:03;;;;;;;9.40;9.10;;;8.20;99.90;;;;;;6227852;23;20197;-80
2023/09/25 06:27:30;;;;;;;9.63;9.33;;;8.30;99.90;;;;;;6227985;23;20217;-80
2023/09/25 06:29:57;;;;;;;9.47;9.17;;;8.40;99.90;;;;;;6228849;23;21104;-80
2023/09/25 06:32:25;;;;;;;9.47;9.17;;;8.50;99.90;;;;;;6228383;22;20199;-80
2023/09/25 06:34:52;;;;;;;9.70;9.40;;;8.50;99.90;;;;;;6227841;23;20206;-80
2023/09/25 06:37:19;;;;;;;9.73;9.43;;;8.60;99.90;;;;;;6228851;23;20190;-80
2023/09/25 06:39:48;;;;;;;9.87;9.57;;;8.70;99.90;;;;;;6230468;23;20191;-80
2023/09/25 06:42:16;;;;;;;9.87;9.57;;;8.80;99.90;;;;;;6229002;22;20215;-80
2023/09/25 06:44:43;;;;;;;10.20;9.90;;;8.90;99.90;;;;;;6228086;23;20198;-80
2023/09/25 06:47:11;;;;;;;10.10;9.80;;;9.00;99.90;;;;;;6227079;23;20195;-80
2023/09/25 06:49:38;;;;;;;10.00;9.70;;;9.10;99.90;;;;;;6227148;23;20253;-80
2023/09/25 06:52:06;;;;;;;10.07;9.77;;;9.10;99.90;;;;;;6226013;22;20207;-80
2023/09/25 06:54:34;;;;;;;10.30;10.00;;;9.10;99.90;;;;;;6226903;23;20198;-80
2023/09/25 06:57:02;;;;;;;10.13;9.83;;;9.20;99.90;;;;;;6226880;23;20207;-80
2023/09/25 06:59:32;;;;;;;10.10;9.80;;;9.30;99.90;;;;;;6227714;23;20285;-80
2023/09/25 07:01:59;;;;;;;10.00;9.70;;;9.40;99.90;;;;;;6226123;22;20234;-80
2023/09/25 07:04:26;;;;;;;10.20;9.90;;;9.60;99.90;;;;;;6227064;23;20195;-80
2023/09/25 07:06:54;;;;;;;10.30;10.00;;;9.70;99.90;;;;;;6226536;23;20199;-80
2023/09/25 07:09:22;;;;;;;9.93;9.63;;;9.80;99.90;;;;;;6226362;23;20207;-80
2023/09/25 07:11:50;;;;;;;10.30;10.00;;;10.00;99.90;;;;;;6227235;22;20202;-80
2023/09/25 07:14:18;;;;;;;10.33;10.03;;;10.20;99.90;;;;;;6226581;23;20195;-80
2023/09/25 07:16:45;;;;;;;10.37;10.07;;;10.30;99.90;;;;;;6227008;23;20206;-80
2023/09/25 07:19:13;;;;;;;10.10;9.80;;;10.40;99.90;;;;;;6226597;23;20204;-80
2023/09/25 07:21:41;;;;;;;10.10;9.80;;;10.60;99.90;;;;;;6241079;22;20203;-80
2023/09/25 07:24:11;;;;;;;10.30;10.00;;;10.70;99.90;;;;;;6243283;23;20203;-80
2023/09/25 07:26:38;;;;;;;10.53;10.23;;;10.80;99.90;;;;;;6231760;23;20242;-80
2023/09/25 07:29:06;;;;;;;10.33;10.03;;;10.90;99.90;;;;;;6228739;23;20206;-80
2023/09/25 07:31:35;;;;;;;10.27;9.97;;;11.00;99.90;;;;;;6228217;22;20258;-80
2023/09/25 07:34:05;;;;;;;10.40;10.10;;;11.20;99.90;;;;;;6228667;23;20202;-80
2023/09/25 07:36:32;;;;;;;10.60;10.30;;;11.30;99.90;;;;;;6227434;23;20199;-80
2023/09/25 07:39:00;;;;;;;10.50;10.20;;;11.40;99.90;;;;;;6227336;23;20229;-80
2023/09/25 07:41:27;;;;;;;10.70;10.40;;;11.50;99.90;;;;;;6226075;22;20302;-80
2023/09/25 07:43:54;;;;;;;10.73;10.43;;;11.70;99.90;;;;;;6226850;23;20273;-80
2023/09/25 07:46:21;;;;;;;10.60;10.30;;;11.90;99.90;;;;;;6226653;23;20195;-80
2023/09/25 07:48:50;;;;;;;10.77;10.47;;;12.10;99.90;;;;;;6228057;23;20218;-80
2023/09/25 07:51:17;;;;;;;10.50;10.20;;;12.20;99.90;;;;;;6226332;22;20226;-80
2023/09/25 07:53:45;;;;;;;10.53;10.23;;;12.40;99.90;;;;;;6225880;23;20218;-80
2023/09/25 07:56:12;;;;;;;10.50;10.20;;;12.60;99.90;;;;;;6226026;23;20213;-80
2023/09/25 07:58:40;;;;;;;10.50;10.20;;;12.80;99.90;;;;;;6226274;23;20207;-80
2023/09/25 08:01:08;;;;;;;10.40;10.10;;;13.00;99.90;;;;;;6226171;22;20202;-80
2023/09/25 14:02:54;;;;;;;10.25;9.95;;;27.80;99.90;;;;;;6178996;22;20204;-79
2023/09/25 14:05:22;;;;;;;10.27;9.98;;;27.40;99.90;;;;;;6205498;23;20210;-80
2023/09/25 14:07:49;;;;;;;10.60;10.30;;;27.10;99.90;;;;;;6207512;23;20191;-80
2023/09/25 14:10:16;;;;;;;10.70;10.40;;;27.20;99.90;;;;;;6209702;23;20229;-81
2023/09/25 14:12:46;;;;;;;10.50;10.20;;;27.30;99.90;;;;;;6211300;23;20226;-81
2023/09/25 14:15:14;;;;;;;10.80;10.50;;;27.50;99.90;;;;;;6210270;23;20208;-82
2023/09/25 14:17:41;;;;;;;10.73;10.43;;;27.70;99.90;;;;;;6206473;23;20195;-80
2023/09/25 14:20:11;;;;;;;10.50;10.20;;;28.10;99.90;;;;;;6207650;23;20271;-81
2023/09/25 14:22:40;;;;;;;10.48;10.18;;;28.20;99.90;;;;;;6206997;23;20208;-81
2023/09/25 14:25:08;;;;;;;10.50;10.20;;;27.90;99.90;;;;;;6206996;23;20206;-81
2023/09/25 14:27:35;;;;;;;10.38;10.07;;;27.70;99.90;;;;;;6207177;23;20199;-82
2023/09/25 14:30:02;;;;;;;10.25;9.95;;;27.60;99.90;;;;;;6209167;23;20202;-80
2023/09/25 14:32:29;;;;;;;10.50;10.20;;;27.60;99.90;;;;;;6207015;23;20256;-81
2023/09/25 14:34:56;;;;;;;10.50;10.20;;;27.60;99.90;;;;;;6207950;23;20211;-81
2023/09/25 14:37:25;;;;;;;10.48;10.18;;;28.00;99.90;;;;;;6208328;23;20214;-81
2023/09/25 14:39:53;;;;;;;10.18;9.88;;;28.20;99.90;;;;;;6208752;23;20203;-81
2023/09/25 14:42:20;;;;;;;10.20;9.90;;;28.20;99.90;;;;;;6208310;23;20207;-81
2023/09/25 14:44:48;;;;;;;10.82;10.52;;;28.30;99.90;;;;;;6211860;23;20195;-80
2023/09/25 14:47:15;;;;;;;10.45;10.15;;;28.40;99.90;;;;;;6216457;23;20192;-81
2023/09/25 14:49:42;;;;;;;10.18;9.88;;;28.50;99.90;;;;;;6217271;23;20171;-81
2023/09/25 14:52:11;;;;;;;10.20;9.90;;;27.90;99.90;;;;;;6217017;23;20196;-81
2023/09/25 14:54:39;;;;;;;9.82;9.52;;;27.60;99.90;;;;;;6210733;23;20223;-82
2023/09/25 14:57:07;;;;;;;9.90;9.60;;;27.70;99.90;;;;;;6205589;23;20203;-80
2023/09/25 14:59:34;;;;;;;9.90;9.60;;;27.90;99.90;;;;;;6204822;23;20191;-81
2023/09/25 15:02:01;;;;;;;10.00;9.70;;;28.20;99.90;;;;;;6205300;23;20211;-82
2023/09/25 15:04:28;;;;;;;10.00;9.70;;;28.60;99.90;;;;;;6204653;23;20212;-81
2023/09/25 15:06:55;;;;;;;10.20;9.90;;;29.00;99.90;;;;;;6205656;23;20228;-81
2023/09/25 15:09:22;;;;;;;9.77;9.48;;;29.10;99.90;;;;;;6204961;23;20196;-82
2023/09/25 15:11:51;;;;;;;10.40;10.10;;;29.20;99.90;;;;;;6206978;23;20207;-81
2023/09/25 15:14:20;;;;;;;10.60;10.30;;;29.30;99.90;;;;;;6205978;23;20199;-80
2023/09/25 15:16:47;;;;;;;10.13;9.82;;;29.60;99.90;;;;;;6207131;23;20196;-81
2023/09/25 15:19:14;;;;;;;10.38;10.07;;;29.90;99.90;;;;;;6205053;23;20201;-81
2023/09/25 15:21:41;;;;;;;10.30;10.00;;;30.20;99.90;;;;;;6203678;23;20199;-81
2023/09/25 15:24:09;;;;;;;10.70;10.40;;;30.50;99.90;;;;;;6204465;23;20270;-81
2023/09/25 15:26:36;;;;;;;10.77;10.48;;;30.60;99.90;;;;;;6206406;23;20200;-82
2023/09/25 15:29:05;;;;;;;10.90;10.60;;;30.50;99.90;;;;;;6206010;23;20203;-83
2023/09/25 15:31:32;;;;;;;10.70;10.40;;;30.60;99.90;;;;;;6207127;23;20199;-82
2023/09/25 15:33:59;;;;;;;10.60;10.30;;;30.80;99.90;;;;;;6206222;23;20203;-82
2023/09/25 15:36:26;;;;;;;10.23;9.93;;;30.90;99.90;;;;;;6205545;23;20298;-83
2023/09/25 15:38:53;;;;;;;10.20;9.90;;;31.10;99.90;;;;;;6206405;23;20271;-81
2023/09/25 15:41:21;;;;;;;10.30;10.00;;;31.30;99.90;;;;;;6205753;23;20206;-82
2023/09/25 15:43:48;;;;;;;10.10;9.80;;;31.10;99.90;;;;;;6204096;23;20203;-81
2023/09/25 15:46:16;;;;;;;10.10;9.80;;;30.60;99.90;;;;;;6204965;23;20210;-81
2023/09/25 15:48:44;;;;;;;10.10;9.80;;;30.80;99.90;;;;;;6204065;23;20254;-81
2023/09/25 15:51:12;;;;;;;10.00;9.70;;;30.90;99.90;;;;;;6205598;23;20191;-82
2023/09/25 15:53:40;;;;;;;10.02;9.73;;;31.00;99.90;;;;;;6205398;23;20200;-82
2023/09/25 15:56:07;;;;;;;10.35;10.05;;;31.10;99.90;;;;;;6205944;23;20227;-80
2023/09/25 15:58:34;;;;;;;10.27;9.98;;;31.40;99.90;;;;;;6205971;23;20254;-81
2023/09/25 16:01:01;;;;;;;10.65;10.35;;;31.50;99.90;;;;;;6204572;23;20203;-81
2023/09/25 16:03:30;;;;;;;10.48;10.18;;;31.10;99.90;;;;;;6204645;23;20204;-82
2023/09/25 16:05:57;;;;;;;10.70;10.40;;;31.20;99.90;;;;;;6203583;23;20208;-80
2023/09/25 16:08:24;;;;;;;10.65;10.35;;;31.20;99.90;;;;;;6202331;23;20192;-81
2023/09/25 16:10:52;;;;;;;10.57;10.27;;;31.00;99.90;;;;;;6204589;23;20272;-83
2023/09/25 16:13:19;;;;;;;10.45;10.15;;;30.90;99.90;;;;;;6205370;23;20207;-81
2023/09/25 16:15:47;;;;;;;10.50;10.20;;;30.70;99.90;;;;;;6204953;23;20225;-82
2023/09/25 16:18:15;;;;;;;10.50;10.20;;;30.50;99.90;;;;;;6205634;23;20223;-83
2023/09/25 16:20:44;;;;;;;10.60;10.30;;;30.00;99.90;;;;;;6204362;23;21011;-82
2023/09/25 16:23:11;;;;;;;10.00;9.70;;;29.60;99.90;;;;;;6204464;23;20203;-82
2023/09/25 16:25:39;;;;;;;9.68;9.38;;;29.10;99.90;;;;;;6204189;23;20215;-82
2023/09/25 16:28:06;;;;;;;9.98;9.68;;;28.50;99.90;;;;;;6204597;23;20195;-83
2023/09/25 16:30:36;;;;;;;9.80;9.50;;;27.70;99.90;;;;;;6204526;23;20203;-82
2023/09/25 16:33:06;;;;;;;9.93;9.63;;;27.10;99.90;;;;;;6203831;23;20208;-83
2023/09/25 16:35:33;;;;;;;9.90;9.60;;;26.70;99.90;;;;;;6204199;23;20207;-81
2023/09/25 16:38:01;;;;;;;9.93;9.63;;;26.20;99.90;;;;;;6204518;23;20195;-82
2023/09/25 16:40:28;;;;;;;9.70;9.40;;;25.90;99.90;;;;;;6205962;23;20307;-82
2023/09/25 16:42:56;;;;;;;9.80;9.50;;;25.50;99.90;;;;;;6209238;23;20267;-81
2023/09/25 16:45:24;;;;;;;9.82;9.52;;;25.10;99.90;;;;;;6212240;23;20180;-82
2023/09/25 16:47:51;;;;;;;9.70;9.40;;;24.80;99.90;;;;;;6211540;23;20206;-82
2023/09/25 16:50:19;;;;;;;9.82;9.52;;;24.50;99.90;;;;;;6209501;23;20221;-82
2023/09/25 16:52:46;;;;;;;9.73;9.43;;;24.30;99.90;;;;;;6208892;23;20199;-82
2023/09/25 16:55:14;;;;;;;10.15;9.85;;;24.00;99.90;;;;;;6208406;23;20219;-81
2023/09/25 16:57:42;;;;;;;10.05;9.75;;;23.80;99.90;;;;;;6208487;23;20195;-82
2023/09/25 17:00:10;;;;;;;9.80;9.50;;;23.60;99.90;;;;;;6208044;23;20192;-81
2023/09/25 17:02:37;;;;;;;10.07;9.77;;;23.40;99.90;;;;;;6207399;23;20215;-82
2023/09/25 17:05:05;;;;;;;9.80;9.50;;;23.20;99.90;;;;;;6207308;23;20199;-82
2023/09/25 17:07:33;;;;;;;9.80;9.50;;;23.00;99.90;;;;;;6206980;23;20206;-83
2023/09/25 17:10:04;;;;;;;9.88;9.57;;;22.80;99.90;;;;;;6207133;23;20259;-83
2023/09/25 17:12:33;;;;;;;9.40;9.10;;;22.70;99.90;;;;;;6207266;23;20212;-82
2023/09/25 17:15:00;;;;;;;9.25;8.95;;;22.50;99.90;;;;;;6207905;23;20207;-82
2023/09/25 17:17:27;;;;;;;9.30;9.00;;;22.40;99.90;;;;;;6208870;23;20202;-82
2023/09/25 17:19:54;;;;;;;9.40;9.10;;;22.20;99.90;;;;;;6208934;23;20200;-82
2023/09/25 17:22:22;;;;;;;9.73;9.43;;;22.00;99.90;;;;;;6207563;23;20208;-82
2023/09/25 17:24:49;;;;;;;9.18;8.88;;;21.90;99.90;;;;;;6207977;23;20215;-84
2023/09/25 17:27:16;;;;;;;9.10;8.90;;;21.80;99.90;;;;;;6207916;23;20235;-83
2023/09/25 17:29:45;;;;;;;9.15;8.93;;;21.60;99.90;;;;;;6209083;23;20204;-82
2023/09/25 17:32:12;;;;;;;8.73;8.52;;;21.50;99.90;;;;;;6207995;23;20207;-83
2023/09/25 17:34:39;;;;;;;8.70;8.50;;;21.40;99.90;;;;;;6208956;23;20184;-84
2023/09/25 17:37:07;;;;;;;8.52;8.32;;;21.20;99.90;;;;;;6208522;23;20199;-82
2023/09/25 17:39:35;;;;;;;8.60;8.40;;;21.10;99.90;;;;;;6208072;23;20196;-82
2023/09/25 17:42:02;;;;;;;8.60;8.40;;;21.00;99.90;;;;;;6210007;23;20251;-82
2023/09/25 17:44:29;;;;;;;8.60;8.40;;;20.80;99.90;;;;;;6209358;23;20254;-81
2023/09/25 17:46:58;;;;;;;8.60;8.40;;;20.60;99.90;;;;;;6208314;23;20200;-82
2023/09/25 17:49:25;;;;;;;8.40;8.20;;;20.40;99.90;;;;;;6208203;23;20244;-82
2023/09/25 17:51:54;;;;;;;8.20;8.00;;;20.30;99.90;;;;;;6207121;23;20224;-82
2023/09/25 17:54:21;;;;;;;8.50;8.30;;;20.20;99.90;;;;;;6207354;23;20203;-82
2023/09/25 17:56:48;;;;;;;8.40;8.20;;;20.10;99.90;;;;;;6207499;23;20204;-83
2023/09/25 17:59:15;;;;;;;8.48;8.27;;;20.00;99.90;;;;;;6206644;23;20227;-81
2023/09/25 18:01:42;;;;;;;8.30;8.10;;;19.80;99.90;;;;;;6205686;23;20196;-83
2023/09/25 18:04:11;;;;;;;8.65;8.45;;;19.70;99.90;;;;;;6208934;23;20223;-82
2023/09/25 18:06:38;;;;;;;8.38;8.18;;;19.50;99.90;;;;;;6207646;23;20199;-81
2023/09/25 18:09:05;;;;;;;8.60;8.40;;;19.40;99.90;;;;;;6207616;23;20223;-81
2023/09/25 18:11:32;;;;;;;8.50;8.30;;;19.30;99.90;;;;;;6206043;23;20243;-81
2023/09/25 18:13:59;;;;;;;8.15;7.95;;;19.10;99.90;;;;;;6207083;23;20212;-82
2023/09/25 18:16:26;;;;;;;8.35;8.15;;;19.10;99.90;;;;;;6207073;23;20196;-83
2023/09/25 18:18:53;;;;;;;8.50;8.30;;;18.90;99.90;;;;;;6207536;23;20188;-82
2023/09/25 18:21:22;;;;;;;8.70;8.50;;;18.80;99.90;;;;;;6207142;23;20208;-82
2023/09/25 18:23:49;;;;;;;8.43;8.23;;;18.70;99.90;;;;;;6206191;23;20207;-82
2023/09/25 18:26:16;;;;;;;8.50;8.30;;;18.60;99.90;;;;;;6206699;23;20207;-83
2023/09/25 18:28:43;;;;;;;8.90;8.70;;;18.50;99.90;;;;;;6207629;23;20313;-82
2023/09/25 18:31:10;;;;;;;8.38;8.18;;;18.40;99.90;;;;;;6207052;23;20199;-82
2023/09/25 18:33:38;;;;;;;8.80;8.60;;;18.30;99.90;;;;;;6206777;23;20200;-82
2023/09/25 18:36:05;;;;;;;9.10;8.90;;;18.20;99.90;;;;;;6207312;23;20198;-82
2023/09/25 18:38:34;;;;;;;9.05;8.85;;;18.10;99.90;;;;;;6207103;23;20203;-82
2023/09/25 18:41:01;;;;;;;9.30;9.00;;;17.80;99.90;;;;;;6207092;23;20239;-82
2023/09/25 18:43:28;;;;;;;9.00;8.80;;;17.60;99.90;;;;;;6206570;23;20218;-82
2023/09/25 18:45:55;;;;;;;9.38;9.07;;;17.60;99.90;;;;;;6207711;23;20192;-83
2023/09/25 18:48:22;;;;;;;8.90;8.70;;;17.60;99.90;;;;;;6206612;23;20206;-82
2023/09/25 18:50:50;;;;;;;9.43;9.13;;;17.50;99.90;;;;;;6207263;23;20663;-82
2023/09/25 18:53:17;;;;;;;9.32;9.02;;;17.40;99.90;;;;;;6207796;23;20270;-83
2023/09/25 18:55:46;;;;;;;9.00;8.80;;;17.40;99.90;;;;;;6206857;23;20196;-82
2023/09/25 18:58:13;;;;;;;9.32;9.02;;;17.30;99.90;;;;;;6207091;23;20200;-83
2023/09/25 19:00:46;;;;;;;9.55;9.25;;;17.30;99.90;;;;;;6207260;23;20200;-83
2023/09/25 19:03:13;;;;;;;9.80;9.50;;;17.20;99.90;;;;;;6207834;23;20206;-83
2023/09/25 19:05:40;;;;;;;9.68;9.38;;;17.10;99.90;;;;;;6208594;23;20195;-82
2023/09/25 19:08:08;;;;;;;9.57;9.27;;;17.00;99.90;;;;;;6208101;23;20215;-82
2023/09/25 19:10:35;;;;;;;9.38;9.07;;;16.90;99.90;;;;;;6207287;23;20251;-82
2023/09/25 19:13:04;;;;;;;9.55;9.25;;;16.80;99.90;;;;;;6205963;23;20207;-83
2023/09/25 19:15:31;;;;;;;9.40;9.10;;;16.80;99.90;;;;;;6207474;23;20195;-82
2023/09/25 19:17:58;;;;;;;9.02;8.82;;;16.70;99.90;;;;;;6206983;23;20239;-82
2023/09/25 19:20:26;;;;;;;9.00;8.80;;;16.60;99.90;;;;;;6206821;23;20192;-81
2023/09/25 19:22:53;;;;;;;9.07;8.88;;;16.60;99.90;;;;;;6205900;23;20206;-82
2023/09/25 19:25:20;;;;;;;9.95;9.65;;;16.50;99.90;;;;;;6206934;23;20203;-83
2023/09/25 19:27:47;;;;;;;9.70;9.40;;;16.50;99.90;;;;;;6207421;23;20203;-82
2023/09/25 19:30:16;;;;;;;10.15;9.85;;;16.40;99.90;;;;;;6207425;23;20247;-81
2023/09/25 19:32:43;;;;;;;9.73;9.43;;;16.30;99.90;;;;;;6207117;23;20306;-82
2023/09/25 19:35:11;;;;;;;10.30;10.00;;;16.20;99.90;;;;;;6206371;23;20222;-83
2023/09/25 19:37:38;;;;;;;9.90;9.60;;;16.20;99.90;;;;;;6207466;23;20206;-82
2023/09/25 19:40:07;;;;;;;10.25;9.95;;;16.10;99.90;;;;;;6206245;23;20195;-82
2023/09/25 19:42:57;;;;;;;10.07;9.77;;;16.00;99.90;;;;;;6206484;23;20204;-81
2023/09/25 19:45:26;;;;;;;9.93;9.63;;;16.00;99.90;;;;;;6207674;23;20200;-82
2023/09/25 19:47:53;;;;;;;10.35;10.05;;;16.00;99.90;;;;;;6207266;23;20251;-82
2023/09/25 19:50:20;;;;;;;10.18;9.88;;;15.90;99.90;;;;;;6207164;23;20223;-83
2023/09/25 19:52:47;;;;;;;10.30;10.00;;;15.80;99.90;;;;;;6206600;23;20207;-83
2023/09/25 19:55:15;;;;;;;10.38;10.07;;;15.70;99.90;;;;;;6207786;23;20187;-82
2023/09/25 19:57:42;;;;;;;11.00;10.70;;;15.70;99.90;;;;;;6207576;23;20191;-81
2023/09/25 20:00:11;;;;;;;10.80;10.50;;;15.60;99.90;;;;;;6208742;23;20218;-83
2023/09/25 21:56:39;;;;;;;;;;;;;;;;;;;;;
